sensor_id;sensor_type;location;lat;lon;timestamp;temperature;humidity
44170;DHT22;29836;52.286;9.576;2023-08-30T00:02:05;11.60;99.90
44170;DHT22;29836;52.286;9.576;2023-08-30T00:04:30;11.60;99.90
44170;DHT22;29836;52.286;9.576;2023-08-30T00:06:56;11.50;99.90
44170;DHT22;29836;52.286;9.576;2023-08-30T00:09:21;11.50;99.90
44170;DHT22;29836;52.286;9.576;2023-08-30T00:11:47;11.60;99.90
44170;DHT22;29836;52.286;9.576;2023-08-30T00:14:12;11.60;99.90
44170;DHT22;29836;52.286;9.576;2023-08-30T00:16:38;11.60;99.90
44170;DHT22;29836;52.286;9.576;2023-08-30T00:19:04;11.50;99.90
44170;DHT22;29836;52.286;9.576;2023-08-30T00:21:29;11.40;99.90
44170;DHT22;29836;52.286;9.576;2023-08-30T00:23:55;11.40;99.90
44170;DHT22;29836;52.286;9.576;2023-08-30T00:26:21;11.40;99.90
44170;DHT22;29836;52.286;9.576;2023-08-30T00:28:47;11.30;99.90
44170;DHT22;29836;52.286;9.576;2023-08-30T00:31:12;11.20;99.90
44170;DHT22;29836;52.286;9.576;2023-08-30T00:33:38;11.10;99.90
44170;DHT22;29836;52.286;9.576;2023-08-30T00:36:04;11.00;99.90
44170;DHT22;29836;52.286;9.576;2023-08-30T00:38:33;11.00;99.90
44170;DHT22;29836;52.286;9.576;2023-08-30T00:40:59;11.00;99.90
44170;DHT22;29836;52.286;9.576;2023-08-30T00:43:24;10.90;99.90
44170;DHT22;29836;52.286;9.576;2023-08-30T00:45:51;10.90;99.90
44170;DHT22;29836;52.286;9.576;2023-08-30T00:48:18;10.90;99.90
44170;DHT22;29836;52.286;9.576;2023-08-30T00:50:44;11.00;99.90
44170;DHT22;29836;52.286;9.576;2023-08-30T00:53:11;11.00;99.90
44170;DHT22;29836;52.286;9.576;2023-08-30T00:55:37;11.00;99.90
44170;DHT22;29836;52.286;9.576;2023-08-30T00:58:04;11.00;99.90
44170;DHT22;29836;52.286;9.576;2023-08-30T01:00:30;11.00;99.90
44170;DHT22;29836;52.286;9.576;2023-08-30T01:02:57;11.00;99.90
44170;DHT22;29836;52.286;9.576;2023-08-30T01:05:23;10.90;99.90
44170;DHT22;29836;52.286;9.576;2023-08-30T01:07:51;10.90;99.90
44170;DHT22;29836;52.286;9.576;2023-08-30T01:10:18;10.90;99.90
44170;DHT22;29836;52.286;9.576;2023-08-30T01:12:52;10.90;99.90
44170;DHT22;29836;52.286;9.576;2023-08-30T01:15:23;10.80;99.90
44170;DHT22;29836;52.286;9.576;2023-08-30T01:17:52;10.80;99.90
44170;DHT22;29836;52.286;9.576;2023-08-30T01:20:20;10.70;99.90
44170;DHT22;29836;52.286;9.576;2023-08-30T01:23:06;10.70;99.90
44170;DHT22;29836;52.286;9.576;2023-08-30T01:26:03;10.70;99.90
44170;DHT22;29836;52.286;9.576;2023-08-30T01:28:31;10.60;99.90
44170;DHT22;29836;52.286;9.576;2023-08-30T01:30:58;10.60;99.90
44170;DHT22;29836;52.286;9.576;2023-08-30T01:33:25;10.50;99.90
44170;DHT22;29836;52.286;9.576;2023-08-30T01:35:54;10.60;99.90
44170;DHT22;29836;52.286;9.576;2023-08-30T01:38:20;10.60;99.90
44170;DHT22;29836;52.286;9.576;2023-08-30T01:40:47;10.70;99.90
44170;DHT22;29836;52.286;9.576;2023-08-30T01:43:14;10.90;99.90
44170;DHT22;29836;52.286;9.576;2023-08-30T01:45:43;11.20;99.90
44170;DHT22;29836;52.286;9.576;2023-08-30T01:48:11;11.50;99.90
44170;DHT22;29836;52.286;9.576;2023-08-30T01:50:38;11.60;99.90
44170;DHT22;29836;52.286;9.576;2023-08-30T01:53:05;11.70;99.90
44170;DHT22;29836;52.286;9.576;2023-08-30T01:55:34;11.80;99.90
44170;DHT22;29836;52.286;9.576;2023-08-30T01:58:00;11.80;99.90
44170;DHT22;29836;52.286;9.576;2023-08-30T02:00:26;11.90;99.90
44170;DHT22;29836;52.286;9.576;2023-08-30T02:02:52;11.80;99.90
44170;DHT22;29836;52.286;9.576;2023-08-30T02:05:17;11.70;99.90
44170;DHT22;29836;52.286;9.576;2023-08-30T02:07:49;11.60;99.90
44170;DHT22;29836;52.286;9.576;2023-08-30T02:10:22;11.60;99.90
44170;DHT22;29836;52.286;9.576;2023-08-30T02:12:49;11.50;99.90
44170;DHT22;29836;52.286;9.576;2023-08-30T02:15:16;11.50;99.90
44170;DHT22;29836;52.286;9.576;2023-08-30T02:17:43;11.40;99.90
44170;DHT22;29836;52.286;9.576;2023-08-30T02:20:09;11.50;99.90
44170;DHT22;29836;52.286;9.576;2023-08-30T02:22:35;11.50;99.90
44170;DHT22;29836;52.286;9.576;2023-08-30T02:25:01;11.50;99.90
44170;DHT22;29836;52.286;9.576;2023-08-30T02:27:33;11.60;99.90
44170;DHT22;29836;52.286;9.576;2023-08-30T02:30:00;11.60;99.90
44170;DHT22;29836;52.286;9.576;2023-08-30T02:32:26;11.60;99.90
44170;DHT22;29836;52.286;9.576;2023-08-30T02:34:52;11.70;99.90
44170;DHT22;29836;52.286;9.576;2023-08-30T02:37:18;11.90;99.90
44170;DHT22;29836;52.286;9.576;2023-08-30T02:39:44;12.10;99.90
44170;DHT22;29836;52.286;9.576;2023-08-30T02:42:10;12.20;99.90
44170;DHT22;29836;52.286;9.576;2023-08-30T02:44:35;12.30;99.90
44170;DHT22;29836;52.286;9.576;2023-08-30T02:47:01;12.10;99.90
44170;DHT22;29836;52.286;9.576;2023-08-30T02:49:27;12.10;99.90
44170;DHT22;29836;52.286;9.576;2023-08-30T02:51:52;12.20;99.90
44170;DHT22;29836;52.286;9.576;2023-08-30T02:54:18;12.40;99.90
44170;DHT22;29836;52.286;9.576;2023-08-30T02:56:44;12.50;99.90
44170;DHT22;29836;52.286;9.576;2023-08-30T02:59:10;12.40;99.90
44170;DHT22;29836;52.286;9.576;2023-08-30T03:01:37;12.50;99.90
44170;DHT22;29836;52.286;9.576;2023-08-30T03:04:05;12.50;99.90
44170;DHT22;29836;52.286;9.576;2023-08-30T03:06:32;12.40;99.90
44170;DHT22;29836;52.286;9.576;2023-08-30T03:08:58;12.40;99.90
44170;DHT22;29836;52.286;9.576;2023-08-30T03:11:24;12.50;99.90
44170;DHT22;29836;52.286;9.576;2023-08-30T03:13:49;12.50;99.90
44170;DHT22;29836;52.286;9.576;2023-08-30T03:16:16;12.40;99.90
44170;DHT22;29836;52.286;9.576;2023-08-30T03:18:43;12.40;99.90
44170;DHT22;29836;52.286;9.576;2023-08-30T03:21:09;12.50;99.90
44170;DHT22;29836;52.286;9.576;2023-08-30T03:23:35;12.40;99.90
44170;DHT22;29836;52.286;9.576;2023-08-30T03:26:27;12.40;99.90
44170;DHT22;29836;52.286;9.576;2023-08-30T03:28:53;12.30;99.90
44170;DHT22;29836;52.286;9.576;2023-08-30T03:31:20;12.10;99.90
44170;DHT22;29836;52.286;9.576;2023-08-30T03:33:49;12.00;99.90
44170;DHT22;29836;52.286;9.576;2023-08-30T03:36:16;12.00;99.90
44170;DHT22;29836;52.286;9.576;2023-08-30T03:38:42;12.00;99.90
44170;DHT22;29836;52.286;9.576;2023-08-30T03:41:09;12.10;99.90
44170;DHT22;29836;52.286;9.576;2023-08-30T03:43:35;12.20;99.90
44170;DHT22;29836;52.286;9.576;2023-08-30T03:46:01;12.20;99.90
44170;DHT22;29836;52.286;9.576;2023-08-30T03:48:28;12.20;99.90
44170;DHT22;29836;52.286;9.576;2023-08-30T03:50:55;12.30;99.90
44170;DHT22;29836;52.286;9.576;2023-08-30T03:53:21;12.30;99.90
44170;DHT22;29836;52.286;9.576;2023-08-30T03:55:50;12.30;99.90
44170;DHT22;29836;52.286;9.576;2023-08-30T03:58:17;12.40;99.90
44170;DHT22;29836;52.286;9.576;2023-08-30T04:00:43;12.40;99.90
44170;DHT22;29836;52.286;9.576;2023-08-30T04:03:10;12.50;99.90
44170;DHT22;29836;52.286;9.576;2023-08-30T04:05:36;12.50;99.90
44170;DHT22;29836;52.286;9.576;2023-08-30T04:08:03;12.50;99.90
44170;DHT22;29836;52.286;9.576;2023-08-30T04:10:28;12.50;99.90
44170;DHT22;29836;52.286;9.576;2023-08-30T04:12:54;12.50;99.90
44170;DHT22;29836;52.286;9.576;2023-08-30T04:15:20;12.40;99.90
44170;DHT22;29836;52.286;9.576;2023-08-30T04:17:45;12.40;99.90
44170;DHT22;29836;52.286;9.576;2023-08-30T04:20:11;12.40;99.90
44170;DHT22;29836;52.286;9.576;2023-08-30T04:22:36;12.30;99.90
44170;DHT22;29836;52.286;9.576;2023-08-30T04:25:03;12.30;99.90
44170;DHT22;29836;52.286;9.576;2023-08-30T04:27:29;12.30;99.90
44170;DHT22;29836;52.286;9.576;2023-08-30T04:29:55;12.40;99.90
44170;DHT22;29836;52.286;9.576;2023-08-30T04:32:20;12.50;99.90
44170;DHT22;29836;52.286;9.576;2023-08-30T04:34:46;12.60;99.90
44170;DHT22;29836;52.286;9.576;2023-08-30T04:37:11;12.70;99.90
44170;DHT22;29836;52.286;9.576;2023-08-30T04:39:37;12.70;99.90
44170;DHT22;29836;52.286;9.576;2023-08-30T04:42:02;12.80;99.90
44170;DHT22;29836;52.286;9.576;2023-08-30T04:44:28;12.80;99.90
44170;DHT22;29836;52.286;9.576;2023-08-30T04:46:54;12.90;99.90
44170;DHT22;29836;52.286;9.576;2023-08-30T04:49:20;12.90;99.90
44170;DHT22;29836;52.286;9.576;2023-08-30T04:51:46;12.90;99.90
44170;DHT22;29836;52.286;9.576;2023-08-30T04:54:12;12.70;99.90
44170;DHT22;29836;52.286;9.576;2023-08-30T04:56:38;12.60;99.90
44170;DHT22;29836;52.286;9.576;2023-08-30T04:59:03;12.50;99.90
44170;DHT22;29836;52.286;9.576;2023-08-30T05:01:30;12.50;99.90
44170;DHT22;29836;52.286;9.576;2023-08-30T05:03:56;12.50;99.90
44170;DHT22;29836;52.286;9.576;2023-08-30T05:06:21;12.50;99.90
44170;DHT22;29836;52.286;9.576;2023-08-30T05:08:47;12.60;99.90
44170;DHT22;29836;52.286;9.576;2023-08-30T05:11:12;12.70;99.90
44170;DHT22;29836;52.286;9.576;2023-08-30T05:13:38;12.80;99.90
44170;DHT22;29836;52.286;9.576;2023-08-30T05:16:04;12.90;99.90
44170;DHT22;29836;52.286;9.576;2023-08-30T05:18:30;12.90;99.90
44170;DHT22;29836;52.286;9.576;2023-08-30T05:20:55;12.90;99.90
44170;DHT22;29836;52.286;9.576;2023-08-30T05:23:21;13.00;99.90
44170;DHT22;29836;52.286;9.576;2023-08-30T05:25:47;13.10;99.90
44170;DHT22;29836;52.286;9.576;2023-08-30T05:28:12;13.20;99.90
44170;DHT22;29836;52.286;9.576;2023-08-30T05:30:41;13.40;99.90
44170;DHT22;29836;52.286;9.576;2023-08-30T05:33:07;13.40;99.90
44170;DHT22;29836;52.286;9.576;2023-08-30T05:35:32;13.50;99.90
44170;DHT22;29836;52.286;9.576;2023-08-30T05:37:58;13.40;99.90
44170;DHT22;29836;52.286;9.576;2023-08-30T05:40:24;13.40;99.90
44170;DHT22;29836;52.286;9.576;2023-08-30T05:42:50;13.40;99.90
44170;DHT22;29836;52.286;9.576;2023-08-30T05:45:15;13.50;99.90
44170;DHT22;29836;52.286;9.576;2023-08-30T05:47:41;13.60;99.90
44170;DHT22;29836;52.286;9.576;2023-08-30T05:50:07;13.60;99.90
44170;DHT22;29836;52.286;9.576;2023-08-30T05:52:33;13.70;99.90
44170;DHT22;29836;52.286;9.576;2023-08-30T05:54:58;13.80;99.90
44170;DHT22;29836;52.286;9.576;2023-08-30T05:57:24;13.90;99.90
44170;DHT22;29836;52.286;9.576;2023-08-30T05:59:51;14.00;99.90
44170;DHT22;29836;52.286;9.576;2023-08-30T06:02:16;14.10;99.90
44170;DHT22;29836;52.286;9.576;2023-08-30T06:04:42;14.20;99.90
44170;DHT22;29836;52.286;9.576;2023-08-30T06:07:08;14.30;99.90
44170;DHT22;29836;52.286;9.576;2023-08-30T06:09:33;14.40;99.90
44170;DHT22;29836;52.286;9.576;2023-08-30T06:11:59;14.50;99.90
44170;DHT22;29836;52.286;9.576;2023-08-30T06:14:25;14.50;99.90
44170;DHT22;29836;52.286;9.576;2023-08-30T06:16:50;14.60;99.90
44170;DHT22;29836;52.286;9.576;2023-08-30T06:19:16;14.80;99.90
44170;DHT22;29836;52.286;9.576;2023-08-30T06:21:41;14.90;99.90
44170;DHT22;29836;52.286;9.576;2023-08-30T06:24:07;15.00;99.90
44170;DHT22;29836;52.286;9.576;2023-08-30T06:26:32;15.10;99.90
44170;DHT22;29836;52.286;9.576;2023-08-30T06:28:58;15.20;99.90
44170;DHT22;29836;52.286;9.576;2023-08-30T06:31:24;15.40;99.90
44170;DHT22;29836;52.286;9.576;2023-08-30T06:33:50;15.50;99.90
44170;DHT22;29836;52.286;9.576;2023-08-30T06:36:16;15.60;99.90
44170;DHT22;29836;52.286;9.576;2023-08-30T06:38:43;15.80;99.90
44170;DHT22;29836;52.286;9.576;2023-08-30T06:41:08;15.90;99.90
44170;DHT22;29836;52.286;9.576;2023-08-30T06:43:34;16.10;99.90
44170;DHT22;29836;52.286;9.576;2023-08-30T06:45:59;16.20;99.90
44170;DHT22;29836;52.286;9.576;2023-08-30T06:48:25;16.30;99.90
44170;DHT22;29836;52.286;9.576;2023-08-30T06:50:51;16.50;99.90
44170;DHT22;29836;52.286;9.576;2023-08-30T06:53:17;16.60;99.90
44170;DHT22;29836;52.286;9.576;2023-08-30T06:55:42;16.70;99.90
44170;DHT22;29836;52.286;9.576;2023-08-30T06:58:08;16.80;99.90
44170;DHT22;29836;52.286;9.576;2023-08-30T07:00:33;16.90;99.90
44170;DHT22;29836;52.286;9.576;2023-08-30T07:02:59;16.90;99.90
44170;DHT22;29836;52.286;9.576;2023-08-30T07:05:25;16.90;99.90
44170;DHT22;29836;52.286;9.576;2023-08-30T07:07:50;17.00;99.90
44170;DHT22;29836;52.286;9.576;2023-08-30T07:10:16;17.20;99.90
44170;DHT22;29836;52.286;9.576;2023-08-30T07:12:41;17.20;99.90
44170;DHT22;29836;52.286;9.576;2023-08-30T07:15:07;17.20;99.90
44170;DHT22;29836;52.286;9.576;2023-08-30T07:17:33;17.10;99.90
44170;DHT22;29836;52.286;9.576;2023-08-30T07:19:59;17.20;99.90
44170;DHT22;29836;52.286;9.576;2023-08-30T07:22:24;17.20;99.90
44170;DHT22;29836;52.286;9.576;2023-08-30T07:24:50;17.10;99.90
44170;DHT22;29836;52.286;9.576;2023-08-30T07:27:16;17.20;99.90
44170;DHT22;29836;52.286;9.576;2023-08-30T07:29:42;17.20;99.90
44170;DHT22;29836;52.286;9.576;2023-08-30T07:32:09;17.20;99.90
44170;DHT22;29836;52.286;9.576;2023-08-30T07:34:34;17.20;99.90
44170;DHT22;29836;52.286;9.576;2023-08-30T07:37:00;17.10;99.90
44170;DHT22;29836;52.286;9.576;2023-08-30T07:39:25;17.10;99.90
44170;DHT22;29836;52.286;9.576;2023-08-30T07:41:51;17.30;99.90
44170;DHT22;29836;52.286;9.576;2023-08-30T07:44:16;17.50;99.90
44170;DHT22;29836;52.286;9.576;2023-08-30T07:46:42;17.70;99.90
44170;DHT22;29836;52.286;9.576;2023-08-30T07:49:08;17.90;99.90
44170;DHT22;29836;52.286;9.576;2023-08-30T07:51:34;18.10;99.90
44170;DHT22;29836;52.286;9.576;2023-08-30T07:53:59;18.20;99.90
44170;DHT22;29836;52.286;9.576;2023-08-30T07:56:25;18.30;99.90
44170;DHT22;29836;52.286;9.576;2023-08-30T07:58:51;18.50;99.90
44170;DHT22;29836;52.286;9.576;2023-08-30T08:01:16;18.60;99.90
44170;DHT22;29836;52.286;9.576;2023-08-30T08:03:42;18.70;99.90
44170;DHT22;29836;52.286;9.576;2023-08-30T08:06:08;18.90;99.90
44170;DHT22;29836;52.286;9.576;2023-08-30T08:08:33;19.10;99.90
44170;DHT22;29836;52.286;9.576;2023-08-30T08:10:59;19.10;99.90
44170;DHT22;29836;52.286;9.576;2023-08-30T08:13:25;19.30;99.90
44170;DHT22;29836;52.286;9.576;2023-08-30T08:15:50;19.50;99.90
44170;DHT22;29836;52.286;9.576;2023-08-30T08:18:16;19.60;99.90
44170;DHT22;29836;52.286;9.576;2023-08-30T08:20:42;19.40;99.90
44170;DHT22;29836;52.286;9.576;2023-08-30T08:23:08;19.50;99.90
44170;DHT22;29836;52.286;9.576;2023-08-30T08:25:34;19.60;99.90
44170;DHT22;29836;52.286;9.576;2023-08-30T08:27:59;19.70;99.90
44170;DHT22;29836;52.286;9.576;2023-08-30T08:30:25;19.80;99.90
44170;DHT22;29836;52.286;9.576;2023-08-30T08:32:50;19.90;99.90
44170;DHT22;29836;52.286;9.576;2023-08-30T08:35:16;20.40;99.90
44170;DHT22;29836;52.286;9.576;2023-08-30T08:37:42;20.80;99.90
44170;DHT22;29836;52.286;9.576;2023-08-30T08:40:08;20.80;99.90
44170;DHT22;29836;52.286;9.576;2023-08-30T08:42:35;20.70;99.50
44170;DHT22;29836;52.286;9.576;2023-08-30T08:45:02;21.00;99.90
44170;DHT22;29836;52.286;9.576;2023-08-30T08:47:29;21.40;99.10
44170;DHT22;29836;52.286;9.576;2023-08-30T08:49:55;21.70;98.20
44170;DHT22;29836;52.286;9.576;2023-08-30T08:52:21;22.10;98.10
44170;DHT22;29836;52.286;9.576;2023-08-30T08:54:47;22.60;98.00
44170;DHT22;29836;52.286;9.576;2023-08-30T08:57:13;23.10;95.70
44170;DHT22;29836;52.286;9.576;2023-08-30T08:59:39;23.30;93.70
44170;DHT22;29836;52.286;9.576;2023-08-30T09:02:05;23.30;93.70
44170;DHT22;29836;52.286;9.576;2023-08-30T09:04:31;23.20;93.20
44170;DHT22;29836;52.286;9.576;2023-08-30T09:07:01;22.70;93.90
44170;DHT22;29836;52.286;9.576;2023-08-30T09:09:27;22.30;95.50
44170;DHT22;29836;52.286;9.576;2023-08-30T09:11:52;22.30;95.20
44170;DHT22;29836;52.286;9.576;2023-08-30T09:14:19;22.40;95.50
44170;DHT22;29836;52.286;9.576;2023-08-30T09:17:02;23.10;96.00
44170;DHT22;29836;52.286;9.576;2023-08-30T09:19:28;23.60;93.60
44170;DHT22;29836;52.286;9.576;2023-08-30T09:21:56;23.80;93.90
44170;DHT22;29836;52.286;9.576;2023-08-30T09:24:23;24.20;92.60
44170;DHT22;29836;52.286;9.576;2023-08-30T09:26:49;24.50;91.70
44170;DHT22;29836;52.286;9.576;2023-08-30T09:29:17;23.90;91.50
44170;DHT22;29836;52.286;9.576;2023-08-30T09:31:43;23.30;92.40
44170;DHT22;29836;52.286;9.576;2023-08-30T09:34:09;23.20;91.60
44170;DHT22;29836;52.286;9.576;2023-08-30T09:36:42;23.90;90.90
44170;DHT22;29836;52.286;9.576;2023-08-30T09:39:10;23.50;90.50
44170;DHT22;29836;52.286;9.576;2023-08-30T09:41:49;23.40;90.60
44170;DHT22;29836;52.286;9.576;2023-08-30T09:44:17;23.30;90.60
44170;DHT22;29836;52.286;9.576;2023-08-30T09:46:48;23.00;91.20
44170;DHT22;29836;52.286;9.576;2023-08-30T09:49:14;22.90;91.90
44170;DHT22;29836;52.286;9.576;2023-08-30T09:51:41;22.80;92.40
44170;DHT22;29836;52.286;9.576;2023-08-30T09:54:14;22.70;92.60
44170;DHT22;29836;52.286;9.576;2023-08-30T09:56:41;22.30;93.30
44170;DHT22;29836;52.286;9.576;2023-08-30T09:59:07;22.00;94.60
44170;DHT22;29836;52.286;9.576;2023-08-30T10:01:34;21.60;94.60
44170;DHT22;29836;52.286;9.576;2023-08-30T10:04:00;21.60;95.20
44170;DHT22;29836;52.286;9.576;2023-08-30T10:06:29;22.10;94.40
44170;DHT22;29836;52.286;9.576;2023-08-30T10:08:56;22.20;94.30
44170;DHT22;29836;52.286;9.576;2023-08-30T10:11:23;22.10;94.50
44170;DHT22;29836;52.286;9.576;2023-08-30T10:13:51;22.50;94.30
44170;DHT22;29836;52.286;9.576;2023-08-30T10:16:23;23.10;92.80
44170;DHT22;29836;52.286;9.576;2023-08-30T10:18:53;23.20;91.90
44170;DHT22;29836;52.286;9.576;2023-08-30T10:21:20;23.70;90.90
44170;DHT22;29836;52.286;9.576;2023-08-30T10:23:48;23.90;90.40
44170;DHT22;29836;52.286;9.576;2023-08-30T10:26:15;23.90;90.20
44170;DHT22;29836;52.286;9.576;2023-08-30T10:28:42;23.80;90.30
44170;DHT22;29836;52.286;9.576;2023-08-30T10:31:09;23.80;89.10
44170;DHT22;29836;52.286;9.576;2023-08-30T10:33:47;23.70;90.00
44170;DHT22;29836;52.286;9.576;2023-08-30T10:36:21;23.50;90.30
44170;DHT22;29836;52.286;9.576;2023-08-30T10:38:50;23.70;90.40
44170;DHT22;29836;52.286;9.576;2023-08-30T10:41:25;24.30;90.10
44170;DHT22;29836;52.286;9.576;2023-08-30T10:43:52;25.40;84.20
44170;DHT22;29836;52.286;9.576;2023-08-30T10:46:35;26.50;82.70
44170;DHT22;29836;52.286;9.576;2023-08-30T10:49:13;27.30;76.00
44170;DHT22;29836;52.286;9.576;2023-08-30T10:51:42;27.70;75.80
44170;DHT22;29836;52.286;9.576;2023-08-30T10:54:13;28.00;74.10
44170;DHT22;29836;52.286;9.576;2023-08-30T10:56:46;28.20;72.20
44170;DHT22;29836;52.286;9.576;2023-08-30T10:59:20;28.80;70.00
44170;DHT22;29836;52.286;9.576;2023-08-30T11:01:47;28.90;67.80
44170;DHT22;29836;52.286;9.576;2023-08-30T11:04:14;29.30;69.00
44170;DHT22;29836;52.286;9.576;2023-08-30T11:06:45;30.10;67.50
44170;DHT22;29836;52.286;9.576;2023-08-30T11:09:18;30.40;66.10
44170;DHT22;29836;52.286;9.576;2023-08-30T11:11:45;31.50;64.00
44170;DHT22;29836;52.286;9.576;2023-08-30T11:14:12;31.60;62.30
44170;DHT22;29836;52.286;9.576;2023-08-30T11:16:38;31.00;61.90
44170;DHT22;29836;52.286;9.576;2023-08-30T11:19:05;31.20;63.20
44170;DHT22;29836;52.286;9.576;2023-08-30T11:21:33;30.50;60.10
44170;DHT22;29836;52.286;9.576;2023-08-30T11:23:59;29.60;62.20
44170;DHT22;29836;52.286;9.576;2023-08-30T11:26:25;29.00;65.50
44170;DHT22;29836;52.286;9.576;2023-08-30T11:28:51;28.40;63.90
44170;DHT22;29836;52.286;9.576;2023-08-30T11:31:20;27.00;66.60
44170;DHT22;29836;52.286;9.576;2023-08-30T11:33:55;25.90;67.50
44170;DHT22;29836;52.286;9.576;2023-08-30T11:36:22;25.00;70.60
44170;DHT22;29836;52.286;9.576;2023-08-30T11:38:54;24.50;72.10
44170;DHT22;29836;52.286;9.576;2023-08-30T11:41:20;24.30;72.70
44170;DHT22;29836;52.286;9.576;2023-08-30T11:43:53;23.70;73.00
44170;DHT22;29836;52.286;9.576;2023-08-30T11:46:19;23.40;75.70
44170;DHT22;29836;52.286;9.576;2023-08-30T11:48:47;23.00;77.20
44170;DHT22;29836;52.286;9.576;2023-08-30T11:51:13;22.80;75.00
44170;DHT22;29836;52.286;9.576;2023-08-30T11:53:39;22.60;76.80
44170;DHT22;29836;52.286;9.576;2023-08-30T11:56:06;22.60;75.70
44170;DHT22;29836;52.286;9.576;2023-08-30T11:58:33;22.50;78.00
44170;DHT22;29836;52.286;9.576;2023-08-30T12:00:59;22.40;76.90
44170;DHT22;29836;52.286;9.576;2023-08-30T12:03:29;22.50;76.50
44170;DHT22;29836;52.286;9.576;2023-08-30T12:05:54;22.80;75.90
44170;DHT22;29836;52.286;9.576;2023-08-30T12:08:21;23.20;78.40
44170;DHT22;29836;52.286;9.576;2023-08-30T12:10:48;23.40;76.80
44170;DHT22;29836;52.286;9.576;2023-08-30T12:15:50;23.40;75.00
44170;DHT22;29836;52.286;9.576;2023-08-30T12:18:16;23.40;74.50
44170;DHT22;29836;52.286;9.576;2023-08-30T12:20:52;23.20;74.60
44170;DHT22;29836;52.286;9.576;2023-08-30T12:23:25;23.40;73.00
44170;DHT22;29836;52.286;9.576;2023-08-30T12:26:05;23.40;75.50
44170;DHT22;29836;52.286;9.576;2023-08-30T12:28:32;23.60;75.70
44170;DHT22;29836;52.286;9.576;2023-08-30T12:30:58;23.70;73.70
44170;DHT22;29836;52.286;9.576;2023-08-30T12:33:25;23.50;74.60
44170;DHT22;29836;52.286;9.576;2023-08-30T12:35:51;23.10;73.00
44170;DHT22;29836;52.286;9.576;2023-08-30T12:38:17;22.90;74.30
44170;DHT22;29836;52.286;9.576;2023-08-30T12:40:47;22.60;75.30
44170;DHT22;29836;52.286;9.576;2023-08-30T12:43:14;22.60;77.30
44170;DHT22;29836;52.286;9.576;2023-08-30T12:45:41;22.70;76.80
44170;DHT22;29836;52.286;9.576;2023-08-30T12:48:08;23.00;76.80
44170;DHT22;29836;52.286;9.576;2023-08-30T12:50:38;23.30;76.20
44170;DHT22;29836;52.286;9.576;2023-08-30T12:53:04;23.40;75.70
44170;DHT22;29836;52.286;9.576;2023-08-30T12:55:30;23.90;76.60
44170;DHT22;29836;52.286;9.576;2023-08-30T12:57:57;24.00;75.90
44170;DHT22;29836;52.286;9.576;2023-08-30T13:00:23;23.90;76.90
44170;DHT22;29836;52.286;9.576;2023-08-30T13:02:48;23.80;74.20
44170;DHT22;29836;52.286;9.576;2023-08-30T13:05:14;23.40;76.10
44170;DHT22;29836;52.286;9.576;2023-08-30T13:07:40;23.10;76.30
44170;DHT22;29836;52.286;9.576;2023-08-30T13:10:09;22.90;77.10
44170;DHT22;29836;52.286;9.576;2023-08-30T13:12:35;22.60;77.60
44170;DHT22;29836;52.286;9.576;2023-08-30T13:15:01;22.40;79.00
44170;DHT22;29836;52.286;9.576;2023-08-30T13:17:27;22.20;79.80
44170;DHT22;29836;52.286;9.576;2023-08-30T13:19:52;22.10;80.20
44170;DHT22;29836;52.286;9.576;2023-08-30T13:22:18;22.00;80.90
44170;DHT22;29836;52.286;9.576;2023-08-30T13:24:44;22.00;81.50
44170;DHT22;29836;52.286;9.576;2023-08-30T13:27:10;22.10;82.70
44170;DHT22;29836;52.286;9.576;2023-08-30T13:29:36;22.00;82.30
44170;DHT22;29836;52.286;9.576;2023-08-30T13:32:01;21.80;81.90
44170;DHT22;29836;52.286;9.576;2023-08-30T13:34:27;21.60;82.80
44170;DHT22;29836;52.286;9.576;2023-08-30T13:36:53;21.50;84.30
44170;DHT22;29836;52.286;9.576;2023-08-30T13:39:18;21.30;85.10
44170;DHT22;29836;52.286;9.576;2023-08-30T13:41:48;21.10;85.80
44170;DHT22;29836;52.286;9.576;2023-08-30T13:44:14;20.90;86.50
44170;DHT22;29836;52.286;9.576;2023-08-30T13:46:40;20.80;87.80
44170;DHT22;29836;52.286;9.576;2023-08-30T13:49:06;20.70;87.30
44170;DHT22;29836;52.286;9.576;2023-08-30T13:51:32;20.50;87.70
44170;DHT22;29836;52.286;9.576;2023-08-30T13:53:57;20.40;89.40
44170;DHT22;29836;52.286;9.576;2023-08-30T13:56:23;20.40;90.00
44170;DHT22;29836;52.286;9.576;2023-08-30T13:58:49;20.50;90.30
44170;DHT22;29836;52.286;9.576;2023-08-30T14:01:15;20.60;90.40
44170;DHT22;29836;52.286;9.576;2023-08-30T14:03:40;20.70;90.40
44170;DHT22;29836;52.286;9.576;2023-08-30T14:06:06;20.70;90.00
44170;DHT22;29836;52.286;9.576;2023-08-30T14:08:32;20.70;90.00
44170;DHT22;29836;52.286;9.576;2023-08-30T14:10:57;20.70;89.50
44170;DHT22;29836;52.286;9.576;2023-08-30T14:13:23;20.60;90.30
44170;DHT22;29836;52.286;9.576;2023-08-30T14:15:49;20.30;90.60
44170;DHT22;29836;52.286;9.576;2023-08-30T14:18:15;19.90;92.10
44170;DHT22;29836;52.286;9.576;2023-08-30T14:20:42;19.40;95.50
44170;DHT22;29836;52.286;9.576;2023-08-30T14:23:08;18.70;98.20
44170;DHT22;29836;52.286;9.576;2023-08-30T14:25:33;18.00;99.90
44170;DHT22;29836;52.286;9.576;2023-08-30T14:28:00;17.40;99.90
44170;DHT22;29836;52.286;9.576;2023-08-30T14:30:26;17.00;99.90
44170;DHT22;29836;52.286;9.576;2023-08-30T14:32:51;16.60;99.90
44170;DHT22;29836;52.286;9.576;2023-08-30T14:35:18;16.50;99.90
44170;DHT22;29836;52.286;9.576;2023-08-30T14:37:46;16.20;99.90
44170;DHT22;29836;52.286;9.576;2023-08-30T14:40:14;16.10;99.90
44170;DHT22;29836;52.286;9.576;2023-08-30T14:42:39;16.00;99.90
44170;DHT22;29836;52.286;9.576;2023-08-30T14:45:06;15.80;99.90
44170;DHT22;29836;52.286;9.576;2023-08-30T14:47:35;15.60;99.90
44170;DHT22;29836;52.286;9.576;2023-08-30T14:50:01;15.60;99.90
44170;DHT22;29836;52.286;9.576;2023-08-30T14:52:28;15.60;99.90
44170;DHT22;29836;52.286;9.576;2023-08-30T14:54:54;15.50;99.90
44170;DHT22;29836;52.286;9.576;2023-08-30T14:57:20;15.40;99.90
44170;DHT22;29836;52.286;9.576;2023-08-30T14:59:46;15.50;99.90
44170;DHT22;29836;52.286;9.576;2023-08-30T15:02:12;15.50;99.90
44170;DHT22;29836;52.286;9.576;2023-08-30T15:04:39;15.60;99.90
44170;DHT22;29836;52.286;9.576;2023-08-30T15:07:05;15.60;99.90
44170;DHT22;29836;52.286;9.576;2023-08-30T15:09:31;15.50;99.90
44170;DHT22;29836;52.286;9.576;2023-08-30T15:11:56;15.50;99.90
44170;DHT22;29836;52.286;9.576;2023-08-30T15:14:24;15.40;99.90
44170;DHT22;29836;52.286;9.576;2023-08-30T15:16:49;15.40;99.90
44170;DHT22;29836;52.286;9.576;2023-08-30T15:19:15;15.50;99.90
44170;DHT22;29836;52.286;9.576;2023-08-30T15:21:41;15.50;99.90
44170;DHT22;29836;52.286;9.576;2023-08-30T15:24:08;15.60;99.90
44170;DHT22;29836;52.286;9.576;2023-08-30T15:26:34;15.60;99.90
44170;DHT22;29836;52.286;9.576;2023-08-30T15:28:59;15.60;99.90
44170;DHT22;29836;52.286;9.576;2023-08-30T15:31:25;15.60;99.90